sensor_id;sensor_type;location;lat;lon;timestamp;pressure;altitude;pressure_sealevel;temperature;humidity
73700;BME280;62005;50.082;8.988;2023-07-29T00:00:19;99945.81;;;19.14;100.00
73700;BME280;62005;50.082;8.988;2023-07-29T00:02:45;99954.59;;;19.16;100.00
73700;BME280;62005;50.082;8.988;2023-07-29T00:05:11;99954.03;;;19.14;100.00
73700;BME280;62005;50.082;8.988;2023-07-29T00:07:36;99937.19;;;19.02;100.00
73700;BME280;62005;50.082;8.988;2023-07-29T00:10:01;99953.53;;;19.12;100.00
73700;BME280;62005;50.082;8.988;2023-07-29T00:12:28;99952.44;;;19.13;100.00
73700;BME280;62005;50.082;8.988;2023-07-29T00:14:54;99949.72;;;19.08;100.00
73700;BME280;62005;50.082;8.988;2023-07-29T00:17:19;99928.72;;;18.98;100.00
73700;BME280;62005;50.082;8.988;2023-07-29T00:19:45;99942.63;;;19.07;100.00
73700;BME280;62005;50.082;8.988;2023-07-29T00:22:11;99942.63;;;19.07;100.00
73700;BME280;62005;50.082;8.988;2023-07-29T00:24:36;99942.63;;;19.07;100.00
73700;BME280;62005;50.082;8.988;2023-07-29T00:27:01;99927.91;;;18.98;100.00
73700;BME280;62005;50.082;8.988;2023-07-29T00:29:27;99926.25;;;19.02;100.00
73700;BME280;62005;50.082;8.988;2023-07-29T00:31:52;99934.91;;;19.09;100.00
73700;BME280;62005;50.082;8.988;2023-07-29T00:34:17;99923.97;;;19.09;100.00
73700;BME280;62005;50.082;8.988;2023-07-29T00:36:44;99936.81;;;19.13;100.00
73700;BME280;62005;50.082;8.988;2023-07-29T00:39:10;99923.44;;;19.07;100.00
73700;BME280;62005;50.082;8.988;2023-07-29T00:41:35;99923.97;;;19.09;100.00
73700;BME280;62005;50.082;8.988;2023-07-29T00:44:00;99915.22;;;19.07;100.00
73700;BME280;62005;50.082;8.988;2023-07-29T00:46:28;99917.94;;;19.12;100.00
73700;BME280;62005;50.082;8.988;2023-07-29T00:48:54;99901.59;;;19.02;100.00
73700;BME280;62005;50.082;8.988;2023-07-29T00:51:19;99899.84;;;19.11;100.00
73700;BME280;62005;50.082;8.988;2023-07-29T00:53:45;99907.22;;;19.15;100.00
73700;BME280;62005;50.082;8.988;2023-07-29T00:56:10;99913.47;;;19.16;100.00
73700;BME280;62005;50.082;8.988;2023-07-29T00:58:36;99900.91;;;19.15;100.00
73700;BME280;62005;50.082;8.988;2023-07-29T01:01:01;99892.69;;;19.15;100.00
73700;BME280;62005;50.082;8.988;2023-07-29T01:03:27;99900.31;;;19.18;100.00
73700;BME280;62005;50.082;8.988;2023-07-29T01:06:14;99885.28;;;19.15;100.00
73700;BME280;62005;50.082;8.988;2023-07-29T01:08:53;99890.97;;;19.19;100.00
73700;BME280;62005;50.082;8.988;2023-07-29T01:11:38;99894.25;;;19.21;100.00
73700;BME280;62005;50.082;8.988;2023-07-29T01:14:41;99889.88;;;19.20;100.00
73700;BME280;62005;50.082;8.988;2023-07-29T01:17:09;99883.63;;;19.14;100.00
73700;BME280;62005;50.082;8.988;2023-07-29T01:22:25;99834.28;;;18.91;100.00
73700;BME280;62005;50.082;8.988;2023-07-29T01:24:50;99877.31;;;19.14;100.00
73700;BME280;62005;50.082;8.988;2023-07-29T01:27:16;99876.53;;;19.13;100.00
73700;BME280;62005;50.082;8.988;2023-07-29T01:29:41;99891.56;;;19.16;100.00
73700;BME280;62005;50.082;8.988;2023-07-29T01:35:00;99883.34;;;19.16;100.00
73700;BME280;62005;50.082;8.988;2023-07-29T01:37:30;99881.25;;;19.08;100.00
73700;BME280;62005;50.082;8.988;2023-07-29T01:39:59;99873.34;;;19.01;100.00
73700;BME280;62005;50.082;8.988;2023-07-29T01:42:25;99848.28;;;18.89;100.00
73700;BME280;62005;50.082;8.988;2023-07-29T01:44:51;99880.13;;;19.09;100.00
73700;BME280;62005;50.082;8.988;2023-07-29T01:47:17;99881.19;;;19.13;100.00
73700;BME280;62005;50.082;8.988;2023-07-29T01:49:42;99862.41;;;19.01;100.00
73700;BME280;62005;50.082;8.988;2023-07-29T01:52:08;99868.13;;;19.05;100.00
73700;BME280;62005;50.082;8.988;2023-07-29T01:54:33;99860.19;;;19.03;100.00
73700;BME280;62005;50.082;8.988;2023-07-29T01:56:58;99853.66;;;18.99;100.00
73700;BME280;62005;50.082;8.988;2023-07-29T01:59:24;99862.06;;;19.08;100.00
73700;BME280;62005;50.082;8.988;2023-07-29T02:01:49;99849.00;;;19.00;100.00
73700;BME280;62005;50.082;8.988;2023-07-29T02:04:14;99858.78;;;19.06;100.00
73700;BME280;62005;50.082;8.988;2023-07-29T02:06:40;99862.06;;;19.08;100.00
73700;BME280;62005;50.082;8.988;2023-07-29T02:09:05;99846.78;;;19.02;100.00
73700;BME280;62005;50.082;8.988;2023-07-29T02:11:30;99851.94;;;19.08;100.00
73700;BME280;62005;50.082;8.988;2023-07-29T02:13:56;99847.03;;;19.05;100.00
73700;BME280;62005;50.082;8.988;2023-07-29T02:16:22;99832.81;;;19.03;100.00
73700;BME280;62005;50.082;8.988;2023-07-29T02:18:50;99826.03;;;18.96;100.00
73700;BME280;62005;50.082;8.988;2023-07-29T02:21:16;99821.13;;;18.93;100.00
73700;BME280;62005;50.082;8.988;2023-07-29T02:23:41;99837.44;;;19.03;100.00
73700;BME280;62005;50.082;8.988;2023-07-29T02:26:08;99845.13;;;19.01;100.00
73700;BME280;62005;50.082;8.988;2023-07-29T02:28:33;99841.31;;;19.02;100.00
73700;BME280;62005;50.082;8.988;2023-07-29T02:31:17;99844.00;;;19.07;100.00
73700;BME280;62005;50.082;8.988;2023-07-29T02:33:43;99843.47;;;19.05;100.00
73700;BME280;62005;50.082;8.988;2023-07-29T02:36:09;99835.25;;;19.05;100.00
73700;BME280;62005;50.082;8.988;2023-07-29T02:38:34;99830.94;;;18.99;100.00
73700;BME280;62005;50.082;8.988;2023-07-29T02:41:00;99820.09;;;18.89;100.00
73700;BME280;62005;50.082;8.988;2023-07-29T02:43:25;99810.75;;;18.90;100.00
73700;BME280;62005;50.082;8.988;2023-07-29T02:45:51;99817.75;;;19.01;100.00
73700;BME280;62005;50.082;8.988;2023-07-29T02:48:16;99830.81;;;19.09;100.00
73700;BME280;62005;50.082;8.988;2023-07-29T02:50:41;99824.28;;;19.05;100.00
73700;BME280;62005;50.082;8.988;2023-07-29T02:53:07;99833.28;;;19.10;100.00
73700;BME280;62005;50.082;8.988;2023-07-29T02:55:32;99805.16;;;19.00;100.00
73700;BME280;62005;50.082;8.988;2023-07-29T02:57:57;99796.94;;;19.00;100.00
73700;BME280;62005;50.082;8.988;2023-07-29T03:00:23;99816.59;;;19.07;100.00
73700;BME280;62005;50.082;8.988;2023-07-29T03:02:49;99814.94;;;19.06;100.00
73700;BME280;62005;50.082;8.988;2023-07-29T03:05:15;99814.94;;;19.06;100.00
73700;BME280;62005;50.082;8.988;2023-07-29T03:07:40;99813.31;;;19.05;100.00
73700;BME280;62005;50.082;8.988;2023-07-29T03:10:06;99823.69;;;19.08;100.00
73700;BME280;62005;50.082;8.988;2023-07-29T03:12:31;99821.25;;;19.06;100.00
73700;BME280;62005;50.082;8.988;2023-07-29T03:14:56;99815.00;;;19.01;100.00
73700;BME280;62005;50.082;8.988;2023-07-29T03:17:22;99822.66;;;19.04;100.00
73700;BME280;62005;50.082;8.988;2023-07-29T03:19:47;99839.38;;;19.02;100.00
73700;BME280;62005;50.082;8.988;2023-07-29T03:22:12;99815.41;;;18.89;100.00
73700;BME280;62005;50.082;8.988;2023-07-29T03:24:38;99827.09;;;19.00;100.00
73700;BME280;62005;50.082;8.988;2023-07-29T03:27:03;99817.28;;;18.94;100.00
73700;BME280;62005;50.082;8.988;2023-07-29T03:29:29;99813.44;;;18.95;100.00
73700;BME280;62005;50.082;8.988;2023-07-29T03:31:54;99803.41;;;18.85;100.00
73700;BME280;62005;50.082;8.988;2023-07-29T03:34:20;99817.84;;;18.91;100.00
73700;BME280;62005;50.082;8.988;2023-07-29T03:36:45;99816.22;;;18.90;100.00
73700;BME280;62005;50.082;8.988;2023-07-29T03:39:13;99789.47;;;18.82;100.00
73700;BME280;62005;50.082;8.988;2023-07-29T03:41:38;99779.13;;;18.79;100.00
73700;BME280;62005;50.082;8.988;2023-07-29T03:44:03;99797.34;;;18.88;100.00
73700;BME280;62005;50.082;8.988;2023-07-29T03:46:29;99790.50;;;18.86;100.00
73700;BME280;62005;50.082;8.988;2023-07-29T03:48:54;99769.19;;;18.83;100.00
73700;BME280;62005;50.082;8.988;2023-07-29T03:51:20;99781.25;;;18.82;100.00
73700;BME280;62005;50.082;8.988;2023-07-29T03:53:46;99768.66;;;18.81;100.00
73700;BME280;62005;50.082;8.988;2023-07-29T03:56:12;99764.34;;;18.75;100.00
73700;BME280;62005;50.082;8.988;2023-07-29T03:58:37;99781.25;;;18.82;100.00
73700;BME280;62005;50.082;8.988;2023-07-29T04:01:02;99770.66;;;18.75;100.00
73700;BME280;62005;50.082;8.988;2023-07-29T04:03:29;99795.50;;;18.84;100.00
73700;BME280;62005;50.082;8.988;2023-07-29T04:05:54;99796.28;;;18.84;100.00
73700;BME280;62005;50.082;8.988;2023-07-29T04:08:30;99802.59;;;18.85;100.00
73700;BME280;62005;50.082;8.988;2023-07-29T04:10:55;99795.25;;;18.80;100.00
73700;BME280;62005;50.082;8.988;2023-07-29T04:13:21;99787.34;;;18.79;100.00
73700;BME280;62005;50.082;8.988;2023-07-29T04:15:46;99798.53;;;18.82;100.00
73700;BME280;62005;50.082;8.988;2023-07-29T04:18:12;99790.00;;;18.84;100.00
73700;BME280;62005;50.082;8.988;2023-07-29T04:20:37;99745.47;;;18.50;100.00
73700;BME280;62005;50.082;8.988;2023-07-29T04:23:02;99779.41;;;18.77;100.00
73700;BME280;62005;50.082;8.988;2023-07-29T04:25:28;99785.09;;;18.81;100.00
73700;BME280;62005;50.082;8.988;2023-07-29T04:27:53;99774.72;;;18.78;100.00
73700;BME280;62005;50.082;8.988;2023-07-29T04:30:19;99761.13;;;18.68;100.00
73700;BME280;62005;50.082;8.988;2023-07-29T04:32:45;99778.22;;;18.83;100.00
73700;BME280;62005;50.082;8.988;2023-07-29T04:35:13;99783.94;;;18.87;100.00
73700;BME280;62005;50.082;8.988;2023-07-29T04:37:39;99780.69;;;18.85;100.00
73700;BME280;62005;50.082;8.988;2023-07-29T04:40:05;99783.72;;;18.83;100.00
73700;BME280;62005;50.082;8.988;2023-07-29T04:42:31;99775.44;;;18.88;100.00
73700;BME280;62005;50.082;8.988;2023-07-29T04:44:56;99774.09;;;18.86;100.00
73700;BME280;62005;50.082;8.988;2023-07-29T04:47:22;99777.31;;;18.93;100.00
73700;BME280;62005;50.082;8.988;2023-07-29T04:49:48;99776.50;;;18.92;100.00
73700;BME280;62005;50.082;8.988;2023-07-29T04:52:13;99771.03;;;18.92;100.00
73700;BME280;62005;50.082;8.988;2023-07-29T04:54:40;99774.03;;;18.91;100.00
73700;BME280;62005;50.082;8.988;2023-07-29T04:57:05;99770.19;;;18.92;100.00
73700;BME280;62005;50.082;8.988;2023-07-29T04:59:31;99770.66;;;18.99;100.00
73700;BME280;62005;50.082;8.988;2023-07-29T05:01:56;99773.91;;;19.01;100.00
73700;BME280;62005;50.082;8.988;2023-07-29T05:04:22;99774.16;;;19.04;100.00
73700;BME280;62005;50.082;8.988;2023-07-29T05:06:48;99770.66;;;18.99;100.00
73700;BME280;62005;50.082;8.988;2023-07-29T05:09:18;99772.75;;;19.07;100.00
73700;BME280;62005;50.082;8.988;2023-07-29T05:11:44;99765.56;;;19.11;100.00
73700;BME280;62005;50.082;8.988;2023-07-29T05:14:14;99774.03;;;19.14;100.00
73700;BME280;62005;50.082;8.988;2023-07-29T05:16:40;99773.72;;;19.16;100.00
73700;BME280;62005;50.082;8.988;2023-07-29T05:19:06;99775.31;;;19.22;100.00
73700;BME280;62005;50.082;8.988;2023-07-29T05:21:31;99784.84;;;19.29;100.00
73700;BME280;62005;50.082;8.988;2023-07-29T05:23:56;99781.25;;;19.29;100.00
73700;BME280;62005;50.082;8.988;2023-07-29T05:26:22;99788.94;;;19.32;100.00
73700;BME280;62005;50.082;8.988;2023-07-29T05:28:48;99770.88;;;19.26;100.00
73700;BME280;62005;50.082;8.988;2023-07-29T05:31:13;99778.47;;;19.34;100.00
73700;BME280;62005;50.082;8.988;2023-07-29T05:33:38;99778.47;;;19.34;100.00
73700;BME280;62005;50.082;8.988;2023-07-29T05:36:04;99784.53;;;19.31;100.00
73700;BME280;62005;50.082;8.988;2023-07-29T05:38:30;99787.81;;;19.33;100.00
73700;BME280;62005;50.082;8.988;2023-07-29T05:40:55;99792.47;;;19.32;100.00
73700;BME280;62005;50.082;8.988;2023-07-29T05:43:21;99788.13;;;19.26;100.00
73700;BME280;62005;50.082;8.988;2023-07-29T05:45:46;99802.63;;;19.32;100.00
73700;BME280;62005;50.082;8.988;2023-07-29T05:48:11;99764.00;;;19.05;100.00
73700;BME280;62005;50.082;8.988;2023-07-29T05:50:36;99808.66;;;19.29;100.00
73700;BME280;62005;50.082;8.988;2023-07-29T05:53:02;99802.13;;;19.25;100.00
73700;BME280;62005;50.082;8.988;2023-07-29T05:55:27;99811.41;;;19.29;100.00
73700;BME280;62005;50.082;8.988;2023-07-29T05:57:52;99810.31;;;19.30;100.00
73700;BME280;62005;50.082;8.988;2023-07-29T06:00:18;99815.22;;;19.33;100.00
73700;BME280;62005;50.082;8.988;2023-07-29T06:02:44;99822.31;;;19.34;100.00
73700;BME280;62005;50.082;8.988;2023-07-29T06:05:09;99823.72;;;19.31;100.00
73700;BME280;62005;50.082;8.988;2023-07-29T06:07:34;99822.25;;;19.39;100.00
73700;BME280;62005;50.082;8.988;2023-07-29T06:10:00;99817.41;;;19.31;100.00
73700;BME280;62005;50.082;8.988;2023-07-29T06:12:26;99813.59;;;19.32;100.00
73700;BME280;62005;50.082;8.988;2023-07-29T06:14:51;99833.16;;;19.44;100.00
73700;BME280;62005;50.082;8.988;2023-07-29T06:17:17;99823.84;;;19.45;100.00
73700;BME280;62005;50.082;8.988;2023-07-29T06:19:43;99802.03;;;19.35;100.00
73700;BME280;62005;50.082;8.988;2023-07-29T06:22:09;99821.03;;;19.50;100.00
73700;BME280;62005;50.082;8.988;2023-07-29T06:24:35;99823.72;;;19.55;100.00
73700;BME280;62005;50.082;8.988;2023-07-29T06:27:00;99811.69;;;19.51;100.00
73700;BME280;62005;50.082;8.988;2023-07-29T06:29:26;99824.72;;;19.59;100.00
73700;BME280;62005;50.082;8.988;2023-07-29T06:31:51;99814.59;;;19.60;100.00
73700;BME280;62005;50.082;8.988;2023-07-29T06:34:17;99807.69;;;19.62;100.00
73700;BME280;62005;50.082;8.988;2023-07-29T06:36:43;99796.50;;;19.59;100.00
73700;BME280;62005;50.082;8.988;2023-07-29T06:39:08;99816.44;;;19.64;100.00
73700;BME280;62005;50.082;8.988;2023-07-29T06:41:34;99824.66;;;19.64;100.00
73700;BME280;62005;50.082;8.988;2023-07-29T06:43:59;99817.56;;;19.63;100.00
73700;BME280;62005;50.082;8.988;2023-07-29T06:46:24;99802.34;;;19.52;100.00
73700;BME280;62005;50.082;8.988;2023-07-29T06:48:50;99821.91;;;19.64;100.00
73700;BME280;62005;50.082;8.988;2023-07-29T06:51:15;99835.56;;;19.69;100.00
73700;BME280;62005;50.082;8.988;2023-07-29T06:53:40;99815.97;;;19.57;100.00
73700;BME280;62005;50.082;8.988;2023-07-29T06:56:06;99813.16;;;19.62;100.00
73700;BME280;62005;50.082;8.988;2023-07-29T06:58:31;99807.09;;;19.65;100.00
73700;BME280;62005;50.082;8.988;2023-07-29T07:00:57;99810.34;;;19.67;100.00
73700;BME280;62005;50.082;8.988;2023-07-29T07:03:22;99815.84;;;19.67;100.00
73700;BME280;62005;50.082;8.988;2023-07-29T07:05:48;99826.81;;;19.67;100.00
73700;BME280;62005;50.082;8.988;2023-07-29T07:08:13;99826.22;;;19.70;100.00
73700;BME280;62005;50.082;8.988;2023-07-29T07:10:43;99821.31;;;19.67;100.00
73700;BME280;62005;50.082;8.988;2023-07-29T07:13:08;99812.06;;;19.63;100.00
73700;BME280;62005;50.082;8.988;2023-07-29T07:15:33;99799.47;;;19.62;100.00
73700;BME280;62005;50.082;8.988;2023-07-29T07:17:59;99821.31;;;19.67;100.00
73700;BME280;62005;50.082;8.988;2023-07-29T07:20:24;99823.53;;;19.65;100.00
73700;BME280;62005;50.082;8.988;2023-07-29T07:22:49;99817.03;;;19.61;100.00
73700;BME280;62005;50.082;8.988;2023-07-29T07:25:15;99808.81;;;19.61;100.00
73700;BME280;62005;50.082;8.988;2023-07-29T07:27:40;99810.97;;;19.64;100.00
73700;BME280;62005;50.082;8.988;2023-07-29T07:30:06;99847.00;;;19.76;100.00
73700;BME280;62005;50.082;8.988;2023-07-29T07:32:31;99848.63;;;19.77;100.00
73700;BME280;62005;50.082;8.988;2023-07-29T07:34:57;99843.97;;;19.78;100.00
73700;BME280;62005;50.082;8.988;2023-07-29T07:37:22;99813.03;;;19.72;100.00
73700;BME280;62005;50.082;8.988;2023-07-29T07:39:47;99813.56;;;19.74;100.00
73700;BME280;62005;50.082;8.988;2023-07-29T07:42:13;99793.59;;;19.69;100.00
73700;BME280;62005;50.082;8.988;2023-07-29T07:44:38;99796.56;;;19.72;100.00
73700;BME280;62005;50.082;8.988;2023-07-29T07:47:03;99795.31;;;19.65;100.00
73700;BME280;62005;50.082;8.988;2023-07-29T07:49:29;99828.88;;;19.75;100.00
73700;BME280;62005;50.082;8.988;2023-07-29T07:51:54;99827.78;;;19.76;100.00
73700;BME280;62005;50.082;8.988;2023-07-29T07:54:19;99825.66;;;19.73;100.00
73700;BME280;62005;50.082;8.988;2023-07-29T07:56:45;99826.22;;;19.70;100.00
73700;BME280;62005;50.082;8.988;2023-07-29T07:59:10;99835.78;;;19.73;100.00
73700;BME280;62005;50.082;8.988;2023-07-29T08:01:36;99828.47;;;19.68;100.00
73700;BME280;62005;50.082;8.988;2023-07-29T08:04:03;99850.84;;;19.75;100.00
73700;BME280;62005;50.082;8.988;2023-07-29T08:06:29;99853.50;;;19.80;100.00
73700;BME280;62005;50.082;8.988;2023-07-29T08:08:54;99869.97;;;19.80;100.00
73700;BME280;62005;50.082;8.988;2023-07-29T08:11:20;99867.75;;;19.82;100.00
73700;BME280;62005;50.082;8.988;2023-07-29T08:13:45;99859.81;;;19.81;100.00
73700;BME280;62005;50.082;8.988;2023-07-29T08:16:12;99862.25;;;19.82;100.00
73700;BME280;62005;50.082;8.988;2023-07-29T08:18:37;99856.53;;;19.79;100.00
73700;BME280;62005;50.082;8.988;2023-07-29T08:21:02;99855.94;;;19.82;100.00
73700;BME280;62005;50.082;8.988;2023-07-29T08:23:32;99861.09;;;19.88;100.00
73700;BME280;62005;50.082;8.988;2023-07-29T08:25:59;99837.66;;;19.77;100.00
73700;BME280;62005;50.082;8.988;2023-07-29T08:28:31;99848.69;;;19.91;100.00
73700;BME280;62005;50.082;8.988;2023-07-29T08:30:57;99863.19;;;19.96;100.00
73700;BME280;62005;50.082;8.988;2023-07-29T08:33:22;99869.63;;;20.05;100.00
73700;BME280;62005;50.082;8.988;2023-07-29T08:35:48;99872.81;;;20.12;100.00
73700;BME280;62005;50.082;8.988;2023-07-29T08:38:13;99867.56;;;20.16;100.00
73700;BME280;62005;50.082;8.988;2023-07-29T08:40:45;99869.88;;;20.27;100.00
73700;BME280;62005;50.082;8.988;2023-07-29T08:43:11;99858.72;;;20.37;100.00
73700;BME280;62005;50.082;8.988;2023-07-29T08:45:38;99872.22;;;20.52;100.00
73700;BME280;62005;50.082;8.988;2023-07-29T08:48:07;99872.03;;;20.62;100.00
73700;BME280;62005;50.082;8.988;2023-07-29T08:50:36;99836.91;;;20.59;100.00
73700;BME280;62005;50.082;8.988;2023-07-29T08:53:04;99853.16;;;20.88;100.00
73700;BME280;62005;50.082;8.988;2023-07-29T08:55:30;99811.63;;;20.76;100.00
73700;BME280;62005;50.082;8.988;2023-07-29T08:57:57;99853.66;;;21.09;100.00
73700;BME280;62005;50.082;8.988;2023-07-29T09:00:23;99844.06;;;21.20;100.00
73700;BME280;62005;50.082;8.988;2023-07-29T09:02:48;99864.53;;;21.41;100.00
73700;BME280;62005;50.082;8.988;2023-07-29T09:05:14;99855.25;;;21.64;100.00
73700;BME280;62005;50.082;8.988;2023-07-29T09:07:39;99856.88;;;21.92;100.00
73700;BME280;62005;50.082;8.988;2023-07-29T09:10:08;99866.06;;;22.23;100.00
73700;BME280;62005;50.082;8.988;2023-07-29T09:12:35;99857.53;;;22.33;100.00
73700;BME280;62005;50.082;8.988;2023-07-29T09:15:01;99864.59;;;22.61;99.93
73700;BME280;62005;50.082;8.988;2023-07-29T09:17:26;99855.56;;;22.69;97.38
73700;BME280;62005;50.082;8.988;2023-07-29T09:19:55;99854.97;;;22.72;93.82
73700;BME280;62005;50.082;8.988;2023-07-29T09:22:21;99858.03;;;22.71;94.13
73700;BME280;62005;50.082;8.988;2023-07-29T09:24:47;99837.41;;;22.68;94.42
73700;BME280;62005;50.082;8.988;2023-07-29T09:27:26;99843.00;;;22.77;93.57
73700;BME280;62005;50.082;8.988;2023-07-29T09:29:53;99836.34;;;22.78;93.14
73700;BME280;62005;50.082;8.988;2023-07-29T09:32:22;99832.28;;;22.75;92.55
73700;BME280;62005;50.082;8.988;2023-07-29T09:34:48;99841.13;;;22.94;94.37
73700;BME280;62005;50.082;8.988;2023-07-29T09:37:18;99847.00;;;23.01;92.96
73700;BME280;62005;50.082;8.988;2023-07-29T09:39:46;99850.63;;;23.10;90.73
73700;BME280;62005;50.082;8.988;2023-07-29T09:42:16;99848.72;;;23.19;90.95
73700;BME280;62005;50.082;8.988;2023-07-29T09:44:44;99842.56;;;23.22;92.44
73700;BME280;62005;50.082;8.988;2023-07-29T09:47:09;99840.28;;;23.24;88.43
73700;BME280;62005;50.082;8.988;2023-07-29T09:49:35;99838.75;;;23.41;90.54
73700;BME280;62005;50.082;8.988;2023-07-29T09:52:02;99832.44;;;23.49;88.92
73700;BME280;62005;50.082;8.988;2023-07-29T09:54:30;99851.47;;;23.59;87.92
73700;BME280;62005;50.082;8.988;2023-07-29T09:56:56;99849.38;;;23.64;88.54
73700;BME280;62005;50.082;8.988;2023-07-29T09:59:23;99855.06;;;23.68;87.73
73700;BME280;62005;50.082;8.988;2023-07-29T10:01:50;99840.47;;;23.76;87.22
73700;BME280;62005;50.082;8.988;2023-07-29T10:04:15;99858.69;;;23.94;88.68
73700;BME280;62005;50.082;8.988;2023-07-29T10:06:42;99846.72;;;24.07;87.70
73700;BME280;62005;50.082;8.988;2023-07-29T10:09:10;99848.66;;;24.15;85.98
73700;BME280;62005;50.082;8.988;2023-07-29T10:11:37;99860.38;;;24.29;85.83
73700;BME280;62005;50.082;8.988;2023-07-29T10:14:03;99855.19;;;24.36;83.43
73700;BME280;62005;50.082;8.988;2023-07-29T10:16:28;99840.38;;;24.49;83.08
73700;BME280;62005;50.082;8.988;2023-07-29T10:18:54;99831.91;;;24.45;83.50
73700;BME280;62005;50.082;8.988;2023-07-29T10:21:22;99843.47;;;24.39;80.74
73700;BME280;62005;50.082;8.988;2023-07-29T10:23:49;99833.69;;;24.33;81.57
73700;BME280;62005;50.082;8.988;2023-07-29T10:26:19;99825.56;;;24.28;82.31
73700;BME280;62005;50.082;8.988;2023-07-29T10:28:47;99826.06;;;24.30;82.39
73700;BME280;62005;50.082;8.988;2023-07-29T10:31:15;99812.25;;;24.30;80.69
73700;BME280;62005;50.082;8.988;2023-07-29T10:33:41;99804.13;;;24.42;83.32
73700;BME280;62005;50.082;8.988;2023-07-29T10:36:08;99815.28;;;24.63;83.52
73700;BME280;62005;50.082;8.988;2023-07-29T10:38:34;99810.09;;;24.70;79.03
73700;BME280;62005;50.082;8.988;2023-07-29T10:40:59;99799.19;;;24.73;78.80
73700;BME280;62005;50.082;8.988;2023-07-29T10:43:33;99813.47;;;24.92;79.86
73700;BME280;62005;50.082;8.988;2023-07-29T10:48:43;99815.78;;;25.19;77.87
73700;BME280;62005;50.082;8.988;2023-07-29T10:51:27;99816.22;;;25.30;74.17
73700;BME280;62005;50.082;8.988;2023-07-29T10:53:59;99810.69;;;25.38;73.46
73700;BME280;62005;50.082;8.988;2023-07-29T10:56:31;99797.97;;;25.37;72.67
73700;BME280;62005;50.082;8.988;2023-07-29T11:01:41;99805.84;;;25.56;71.35
73700;BME280;62005;50.082;8.988;2023-07-29T11:04:28;99796.28;;;25.53;70.13
73700;BME280;62005;50.082;8.988;2023-07-29T11:12:50;99789.09;;;25.52;69.62
73700;BME280;62005;50.082;8.988;2023-07-29T11:15:27;99793.56;;;25.65;70.58
73700;BME280;62005;50.082;8.988;2023-07-29T11:17:57;99761.41;;;25.52;69.10
73700;BME280;62005;50.082;8.988;2023-07-29T11:23:00;99790.88;;;25.78;68.61
73700;BME280;62005;50.082;8.988;2023-07-29T11:25:27;99783.75;;;25.77;68.83
73700;BME280;62005;50.082;8.988;2023-07-29T11:27:54;99785.34;;;25.78;69.61
73700;BME280;62005;50.082;8.988;2023-07-29T11:30:20;99778.84;;;25.73;67.50
73700;BME280;62005;50.082;8.988;2023-07-29T11:32:46;99774.81;;;25.71;69.55
73700;BME280;62005;50.082;8.988;2023-07-29T11:35:16;99779.53;;;25.70;70.65
73700;BME280;62005;50.082;8.988;2023-07-29T11:37:46;99777.34;;;25.55;71.62
73700;BME280;62005;50.082;8.988;2023-07-29T11:40:19;99783.00;;;25.38;69.86
73700;BME280;62005;50.082;8.988;2023-07-29T11:42:46;99781.19;;;25.34;73.61
73700;BME280;62005;50.082;8.988;2023-07-29T11:45:12;99775.84;;;25.37;75.56
73700;BME280;62005;50.082;8.988;2023-07-29T11:47:38;99779.75;;;25.36;77.27
73700;BME280;62005;50.082;8.988;2023-07-29T11:50:05;99770.47;;;25.32;77.24
73700;BME280;62005;50.082;8.988;2023-07-29T11:52:32;99772.97;;;25.25;77.04
73700;BME280;62005;50.082;8.988;2023-07-29T11:54:58;99782.22;;;25.29;77.62
73700;BME280;62005;50.082;8.988;2023-07-29T11:57:23;99798.38;;;25.19;79.62
73700;BME280;62005;50.082;8.988;2023-07-29T11:59:49;99772.56;;;25.06;79.60
73700;BME280;62005;50.082;8.988;2023-07-29T12:02:19;99772.88;;;25.13;78.17
73700;BME280;62005;50.082;8.988;2023-07-29T12:04:47;99776.28;;;25.10;76.85
73700;BME280;62005;50.082;8.988;2023-07-29T12:07:13;99776.00;;;25.03;76.85
73700;BME280;62005;50.082;8.988;2023-07-29T12:09:40;99774.09;;;24.95;77.61
73700;BME280;62005;50.082;8.988;2023-07-29T12:12:06;99780.91;;;24.89;80.71
73700;BME280;62005;50.082;8.988;2023-07-29T12:14:33;99775.56;;;24.84;82.66
73700;BME280;62005;50.082;8.988;2023-07-29T12:17:02;99772.53;;;24.77;82.05
73700;BME280;62005;50.082;8.988;2023-07-29T12:19:35;99754.63;;;24.66;82.76
73700;BME280;62005;50.082;8.988;2023-07-29T12:22:02;99753.38;;;24.55;83.83
73700;BME280;62005;50.082;8.988;2023-07-29T12:24:29;99719.13;;;24.30;85.13
73700;BME280;62005;50.082;8.988;2023-07-29T12:26:55;99748.03;;;24.33;84.58
73700;BME280;62005;50.082;8.988;2023-07-29T12:29:20;99755.72;;;24.36;87.94
73700;BME280;62005;50.082;8.988;2023-07-29T12:31:46;99757.31;;;24.37;88.75
73700;BME280;62005;50.082;8.988;2023-07-29T12:34:21;99762.19;;;24.40;89.98
73700;BME280;62005;50.082;8.988;2023-07-29T12:36:48;99746.41;;;24.40;91.96
73700;BME280;62005;50.082;8.988;2023-07-29T12:39:30;99755.81;;;24.57;90.66
73700;BME280;62005;50.082;8.988;2023-07-29T12:41:58;99755.97;;;24.60;88.90
73700;BME280;62005;50.082;8.988;2023-07-29T12:44:30;99755.97;;;24.60;86.06
73700;BME280;62005;50.082;8.988;2023-07-29T12:46:55;99748.16;;;24.62;88.95
73700;BME280;62005;50.082;8.988;2023-07-29T12:49:21;99749.63;;;24.68;87.68
73700;BME280;62005;50.082;8.988;2023-07-29T12:51:47;99759.81;;;24.76;89.59
73700;BME280;62005;50.082;8.988;2023-07-29T12:54:13;99739.34;;;24.77;89.47
73700;BME280;62005;50.082;8.988;2023-07-29T12:56:38;99747.91;;;24.84;87.25
73700;BME280;62005;50.082;8.988;2023-07-29T12:59:05;99741.25;;;24.85;87.62
73700;BME280;62005;50.082;8.988;2023-07-29T13:05:18;99749.88;;;24.92;85.90
73700;BME280;62005;50.082;8.988;2023-07-29T13:08:32;99741.09;;;24.90;86.00
73700;BME280;62005;50.082;8.988;2023-07-29T13:11:00;99730.16;;;24.94;83.51
73700;BME280;62005;50.082;8.988;2023-07-29T13:13:25;99744.56;;;25.08;84.11